Judson, North Dakota
Current Conditions -  °F | °C
As of 1:15 PM on Friday 28 Nov 2014 (Local Time) from KD57 Reporting Station
Scattered Clouds Scattered Clouds  
Wind Chill: 18°   Ceiling: Unl
Heat Index: 27°   Visibility: 10mi
Dew Point: 19°   Wind: 8mph
Humidity: 74%   Direction: 120°ESE
Pressure: 29.59"   Gusts: NA
Location:  46.861°N, 101.466°W
Report Text: KD57 281915Z AUTO 12007KT 10SM SCT110 M03/M07 A2959 RMK AO2 TSNO
Loading
Personal Weather Stations






























Interactive Weather Map New forecast layout! Learn more

10-Day Weather Forecast

Advertisements
Track Severe Weather on mobile